Time;durP1;ratioP1;P1;durP2;ratioP2;P2;SDS_P1;SDS_P2;PMS_P1;PMS_P2;Temp;Humidity;BMP_temperature;BMP_pressure;BME280_temperature;BME280_humidity;BME280_pressure;Samples;Min_cycle;Max_cycle;Signal;HPM_P1;HPM_P2
2022/11/23 00:01:30;;;;;;;6.10;2.08;;;;;;;1.39;100.00;94502.44;5128004;27;24528;-70
2022/11/23 00:03:59;;;;;;;5.78;2.17;;;;;;;1.28;100.00;94515.72;5112009;27;24433;-71
2022/11/23 00:06:26;;;;;;;6.07;2.08;;;;;;;1.29;100.00;94502.03;5122986;27;24452;-71
2022/11/23 00:08:54;;;;;;;4.17;2.00;;;;;;;1.24;100.00;94498.06;5113868;27;24433;-70
2022/11/23 00:11:22;;;;;;;5.00;2.03;;;;;;;1.07;100.00;94509.03;5126426;27;24476;-70
2022/11/23 00:13:51;;;;;;;3.60;1.70;;;;;;;1.09;100.00;94504.72;5117420;27;24450;-71
2022/11/23 00:16:19;;;;;;;8.45;2.30;;;;;;;1.11;100.00;94497.81;5118575;27;24773;-71
2022/11/23 00:18:46;;;;;;;5.57;1.77;;;;;;;1.12;100.00;94502.84;5118769;27;24432;-71
2022/11/23 00:21:15;;;;;;;4.90;2.13;;;;;;;1.14;100.00;94508.69;5124134;27;24436;-72
2022/11/23 00:23:42;;;;;;;3.60;1.83;;;;;;;1.08;100.00;94496.25;5116828;27;24995;-70
2022/11/23 00:26:09;;;;;;;6.97;2.00;;;;;;;1.05;100.00;94509.13;5112077;27;24437;-70
2022/11/23 00:28:38;;;;;;;2.85;1.70;;;;;;;0.85;100.00;94509.19;5116588;27;24975;-71
2022/11/23 00:31:06;;;;;;;3.73;1.63;;;;;;;0.86;100.00;94513.41;5122387;27;24444;-71
2022/11/23 00:33:33;;;;;;;5.05;2.20;;;;;;;0.90;100.00;94517.47;5120985;27;24465;-72
2022/11/23 00:36:00;;;;;;;5.00;2.10;;;;;;;0.90;100.00;94515.75;5121376;27;24433;-71
2022/11/23 00:38:27;;;;;;;3.97;1.90;;;;;;;0.89;100.00;94526.84;5119717;27;24792;-71
2022/11/23 00:41:01;;;;;;;4.90;2.10;;;;;;;0.83;100.00;94511.81;5125194;27;24433;-71
2022/11/23 00:43:28;;;;;;;4.03;1.95;;;;;;;0.95;100.00;94505.34;5120497;27;24431;-71
2022/11/23 00:46:10;;;;;;;8.03;2.00;;;;;;;1.02;100.00;94504.16;5113440;27;24908;-71
2022/11/23 00:48:37;;;;;;;6.43;2.10;;;;;;;0.96;100.00;94494.22;5112075;27;24425;-71
2022/11/23 00:51:05;;;;;;;5.15;2.22;;;;;;;1.00;100.00;94510.22;5113906;27;24433;-71
2022/11/23 00:53:32;;;;;;;4.90;2.28;;;;;;;1.09;100.00;94499.63;5113358;27;24454;-71
2022/11/23 00:55:58;;;;;;;4.60;2.47;;;;;;;1.11;100.00;94503.75;5105540;27;24453;-71
2022/11/23 00:58:25;;;;;;;3.75;2.03;;;;;;;1.03;100.00;94500.69;5115760;27;24440;-71
2022/11/23 01:01:01;;;;;;;4.97;2.33;;;;;;;0.94;100.00;94499.41;5112001;27;25057;-70
2022/11/23 01:03:30;;;;;;;5.18;2.40;;;;;;;0.92;100.00;94500.38;5119531;27;24438;-72
2022/11/23 01:05:56;;;;;;;8.30;2.20;;;;;;;0.93;100.00;94495.22;5116519;27;24804;-71
2022/11/23 01:08:23;;;;;;;4.72;2.28;;;;;;;0.81;100.00;94493.22;5113888;27;24440;-72
2022/11/23 01:10:49;;;;;;;5.07;2.28;;;;;;;0.69;100.00;94506.50;5118370;27;24437;-71
2022/11/23 01:13:16;;;;;;;4.82;2.38;;;;;;;0.69;100.00;94512.44;5113653;27;24472;-72
2022/11/23 01:15:49;;;;;;;4.43;2.42;;;;;;;0.77;100.00;94501.88;5108075;27;24994;-69
2022/11/23 01:18:15;;;;;;;11.85;2.70;;;;;;;0.67;100.00;94506.59;5113228;27;24437;-71
2022/11/23 01:20:43;;;;;;;3.53;2.15;;;;;;;0.88;100.00;94499.69;5109027;27;24441;-72
2022/11/23 01:23:10;;;;;;;3.17;1.95;;;;;;;1.01;100.00;94504.25;5116101;27;24428;-72
2022/11/23 01:25:37;;;;;;;3.78;2.00;;;;;;;1.04;100.00;94497.28;5108702;27;25016;-72
2022/11/23 01:28:03;;;;;;;4.15;1.92;;;;;;;1.18;100.00;94501.72;5115639;27;24800;-72
2022/11/23 01:30:30;;;;;;;4.03;2.15;;;;;;;1.21;100.00;94501.59;5104780;27;24982;-72
2022/11/23 01:32:56;;;;;;;2.97;1.90;;;;;;;1.21;100.00;94499.03;5116764;27;24445;-72
2022/11/23 01:35:23;;;;;;;3.53;2.00;;;;;;;1.16;100.00;94500.97;5118894;27;24445;-72
2022/11/23 01:37:51;;;;;;;3.70;1.92;;;;;;;1.23;100.00;94507.44;5109542;27;24815;-72
2022/11/23 01:40:17;;;;;;;3.70;1.90;;;;;;;1.25;100.00;94497.16;5118061;27;24441;-72
2022/11/23 01:42:49;;;;;;;2.20;1.50;;;;;;;1.29;100.00;94499.50;5116915;27;24436;-72
2022/11/23 01:45:41;;;;;;;3.35;1.73;;;;;;;1.24;100.00;94498.06;5119078;27;24437;-72
2022/11/23 01:48:14;;;;;;;4.38;1.70;;;;;;;1.15;100.00;94500.16;5093464;27;24441;-72
2022/11/23 01:50:43;;;;;;;2.60;1.70;;;;;;;1.05;100.00;94504.03;5114579;27;24440;-72
2022/11/23 01:53:13;;;;;;;5.23;1.80;;;;;;;1.00;100.00;94502.56;5115132;27;20903;-72
2022/11/23 01:55:39;;;;;;;3.33;1.77;;;;;;;1.01;100.00;94511.88;5114682;27;24471;-72
2022/11/23 01:58:09;;;;;;;5.40;1.83;;;;;;;1.04;100.00;94504.94;5114882;27;24456;-72
2022/11/23 02:00:36;;;;;;;3.22;1.70;;;;;;;1.05;100.00;94504.03;5114455;27;24451;-72
2022/11/23 02:03:04;;;;;;;3.28;1.48;;;;;;;0.93;100.00;94512.25;5116472;27;24425;-72
2022/11/23 02:05:37;;;;;;;4.00;1.70;;;;;;;0.81;100.00;94517.88;5105847;27;24897;-72
2022/11/23 02:08:04;;;;;;;3.07;1.70;;;;;;;0.83;100.00;94527.13;5108138;27;24433;-72
2022/11/23 02:10:34;;;;;;;2.65;1.60;;;;;;;0.86;100.00;94524.44;5106321;27;24444;-73
2022/11/23 02:13:03;;;;;;;4.10;1.75;;;;;;;0.95;100.00;94520.63;5118566;27;24445;-73
2022/11/23 02:15:30;;;;;;;3.17;1.57;;;;;;;1.02;100.00;94519.47;5104244;27;24443;-73
2022/11/23 02:17:59;;;;;;;8.00;1.80;;;;;;;1.05;100.00;94521.06;5104639;27;24433;-73
2022/11/23 02:20:26;;;;;;;3.20;1.73;;;;;;;1.04;100.00;94522.78;5118557;27;24447;-73
2022/11/23 02:23:02;;;;;;;2.45;1.77;;;;;;;1.01;100.00;94517.81;5117935;27;24440;-73
2022/11/23 02:25:36;;;;;;;4.22;1.83;;;;;;;1.05;100.00;94521.06;5118506;27;24436;-72
2022/11/23 02:28:05;;;;;;;3.92;1.80;;;;;;;1.01;100.00;94520.38;5106311;27;24446;-72
2022/11/23 02:30:34;;;;;;;7.30;2.35;;;;;;;0.95;100.00;94528.28;5104012;27;24448;-72
2022/11/23 02:33:03;;;;;;;3.42;2.10;;;;;;;0.86;100.00;94534.63;5115295;27;24456;-72
2022/11/23 02:35:30;;;;;;;3.95;2.05;;;;;;;0.58;100.00;94532.47;5106123;27;24447;-74
2022/11/23 02:37:57;;;;;;;3.25;1.50;;;;;;;0.55;100.00;94535.13;5107284;27;24429;-72
2022/11/23 02:40:28;;;;;;;3.50;1.80;;;;;;;0.63;100.00;94528.00;5114202;27;25998;-74
2022/11/23 02:42:55;;;;;;;3.08;1.67;;;;;;;0.49;100.00;94532.88;5124838;27;24440;-72
2022/11/23 02:45:31;;;;;;;5.60;1.80;;;;;;;0.52;100.00;94529.34;5119525;27;24437;-71
2022/11/23 02:47:57;;;;;;;2.45;1.50;;;;;;;0.63;100.00;94532.25;5118391;27;24502;-72
2022/11/23 02:50:24;;;;;;;2.80;1.30;;;;;;;0.62;100.00;94539.06;5114342;27;24448;-72
2022/11/23 02:52:50;;;;;;;3.83;1.98;;;;;;;0.56;100.00;94546.19;5125030;28;24435;-71
2022/11/23 02:55:17;;;;;;;3.50;1.95;;;;;;;0.57;100.00;94538.44;5111971;27;24437;-72
2022/11/23 02:57:43;;;;;;;2.88;1.70;;;;;;;0.48;100.00;94534.59;5114835;27;24436;-72
2022/11/23 03:00:11;;;;;;;2.80;1.93;;;;;;;0.29;100.00;94535.44;5100165;28;24449;-73
2022/11/23 03:02:39;;;;;;;2.85;1.77;;;;;;;0.23;100.00;94527.16;5100215;28;24430;-72
2022/11/23 03:05:07;;;;;;;2.40;1.77;;;;;;;0.14;100.00;94532.63;5114292;28;24792;-72
2022/11/23 03:07:33;;;;;;;5.47;2.28;;;;;;;0.14;100.00;94535.19;5106797;27;24437;-72
2022/11/23 03:10:00;;;;;;;9.95;2.80;;;;;;;-0.10;100.00;94531.94;5103155;28;24441;-72
2022/11/23 03:12:26;;;;;;;7.90;2.78;;;;;;;0.06;100.00;94537.22;5112875;27;24441;-72
2022/11/23 03:14:53;;;;;;;8.63;3.13;;;;;;;0.15;100.00;94531.78;5096195;28;24453;-72
2022/11/23 03:17:19;;;;;;;6.45;4.20;;;;;;;0.25;100.00;94539.81;5114156;27;24441;-72
2022/11/23 03:19:47;;;;;;;6.38;4.50;;;;;;;0.30;100.00;94539.63;5107052;27;24441;-72
2022/11/23 03:22:14;;;;;;;7.15;3.72;;;;;;;0.35;100.00;94532.63;5112879;27;25009;-73
2022/11/23 03:24:40;;;;;;;6.50;4.00;;;;;;;0.41;100.00;94529.84;5113457;27;24437;-72
2022/11/23 03:27:07;;;;;;;6.55;2.90;;;;;;;0.46;100.00;94533.00;5116248;27;24445;-72
2022/11/23 03:29:33;;;;;;;7.85;4.00;;;;;;;0.44;100.00;94539.88;5116499;27;24490;-72
2022/11/23 03:32:00;;;;;;;4.80;2.75;;;;;;;0.38;100.00;94540.16;5113642;27;24441;-72
2022/11/23 03:34:26;;;;;;;3.97;2.40;;;;;;;0.48;100.00;94533.75;5119802;27;24454;-72
2022/11/23 03:36:54;;;;;;;3.65;2.17;;;;;;;0.60;100.00;94537.50;5114855;27;25018;-72
2022/11/23 03:39:21;;;;;;;4.15;1.98;;;;;;;0.47;100.00;94537.19;5113469;27;24441;-72
2022/11/23 03:41:47;;;;;;;4.03;1.70;;;;;;;0.51;100.00;94535.34;5117233;27;24437;-72
2022/11/23 03:44:14;;;;;;;2.70;1.80;;;;;;;0.60;100.00;94538.31;5118101;27;25001;-72
2022/11/23 03:46:40;;;;;;;2.45;1.50;;;;;;;0.64;100.00;94539.03;5116755;27;24472;-72
2022/11/23 03:49:07;;;;;;;3.80;1.55;;;;;;;0.45;100.00;94541.53;5116994;27;24433;-72
2022/11/23 03:51:33;;;;;;;3.20;1.30;;;;;;;0.44;100.00;94530.50;5116994;27;24429;-73
2022/11/23 03:54:01;;;;;;;1.38;1.02;;;;;;;0.57;100.00;94530.00;5119024;27;24452;-72
2022/11/23 03:56:28;;;;;;;1.83;1.10;;;;;;;0.65;100.00;94528.75;5124122;27;24437;-73
2022/11/23 03:58:54;;;;;;;2.80;1.40;;;;;;;0.71;100.00;94527.66;5119366;27;24441;-72
2022/11/23 04:01:21;;;;;;;3.55;1.50;;;;;;;0.76;100.00;94528.28;5120981;27;24449;-72
2022/11/23 04:03:47;;;;;;;3.17;1.42;;;;;;;0.84;100.00;94528.75;5118355;27;24433;-72
2022/11/23 04:06:14;;;;;;;1.80;1.10;;;;;;;0.83;100.00;94518.63;5116616;27;24895;-72
2022/11/23 04:08:40;;;;;;;2.97;1.42;;;;;;;0.61;100.00;94529.78;5117105;27;24440;-71
2022/11/23 04:11:08;;;;;;;3.83;1.80;;;;;;;0.56;100.00;94525.78;5119864;27;24445;-71
2022/11/23 04:13:35;;;;;;;3.28;1.45;;;;;;;0.47;100.00;94522.72;5127587;27;24461;-71
2022/11/23 04:16:01;;;;;;;2.77;1.37;;;;;;;0.50;100.00;94524.31;5120805;27;24425;-71
2022/11/23 04:18:28;;;;;;;2.22;1.25;;;;;;;0.28;100.00;94519.34;5109095;27;24791;-71
2022/11/23 04:20:54;;;;;;;1.50;1.10;;;;;;;0.27;100.00;94516.88;5123590;27;24516;-71
2022/11/23 04:23:21;;;;;;;2.22;1.13;;;;;;;0.13;100.00;94520.81;5119925;27;24467;-71
2022/11/23 04:25:47;;;;;;;1.90;1.20;;;;;;;0.12;100.00;94516.63;5105183;27;24779;-71
2022/11/23 04:28:15;;;;;;;2.53;1.33;;;;;;;0.34;100.00;94520.81;5101158;28;24445;-72
2022/11/23 04:30:42;;;;;;;2.92;1.35;;;;;;;0.29;100.00;94526.06;5111972;27;24801;-72
2022/11/23 04:33:08;;;;;;;3.30;1.38;;;;;;;0.39;100.00;94512.06;5111000;27;24441;-72
2022/11/23 04:35:36;;;;;;;2.42;1.10;;;;;;;0.33;100.00;94502.13;5124185;27;24982;-72
2022/11/23 04:38:02;;;;;;;2.42;1.33;;;;;;;0.15;100.00;94508.84;5108344;27;24784;-72
2022/11/23 04:40:30;;;;;;;3.47;1.70;;;;;;;0.19;100.00;94505.28;5115861;27;24448;-72
2022/11/23 04:42:57;;;;;;;1.77;1.10;;;;;;;0.33;100.00;94512.31;5112966;27;24495;-72
2022/11/23 04:45:25;;;;;;;3.13;1.58;;;;;;;0.36;100.00;94519.00;5117166;27;25018;-72
2022/11/23 04:47:51;;;;;;;1.80;1.30;;;;;;;0.40;100.00;94511.16;5106881;27;24441;-72
2022/11/23 04:50:18;;;;;;;3.47;1.65;;;;;;;0.45;100.00;94514.34;5113016;27;24444;-72
2022/11/23 04:52:44;;;;;;;2.60;1.30;;;;;;;0.48;100.00;94516.75;5120308;27;24440;-72
2022/11/23 04:55:11;;;;;;;1.40;1.08;;;;;;;0.52;100.00;94520.00;5119143;27;24477;-72
2022/11/23 04:57:37;;;;;;;2.95;1.23;;;;;;;0.61;100.00;94518.75;5112157;27;25005;-72
2022/11/23 05:00:05;;;;;;;2.80;1.30;;;;;;;0.48;100.00;94523.56;5113127;27;24436;-72
2022/11/23 05:02:32;;;;;;;2.88;1.20;;;;;;;0.47;100.00;94517.63;5112989;27;24429;-72
2022/11/23 05:04:59;;;;;;;3.92;1.33;;;;;;;0.36;100.00;94529.19;5110154;27;25349;-72
2022/11/23 05:07:25;;;;;;;2.92;1.35;;;;;;;0.30;100.00;94524.34;5106255;27;24433;-73
2022/11/23 05:09:52;;;;;;;3.85;1.40;;;;;;;0.27;100.00;94522.78;5107773;27;24879;-72
2022/11/23 05:12:18;;;;;;;2.75;1.50;;;;;;;0.23;100.00;94513.63;5121044;27;24429;-72
2022/11/23 05:14:45;;;;;;;3.90;1.60;;;;;;;0.29;100.00;94512.50;5115908;27;24458;-72
2022/11/23 05:17:12;;;;;;;5.73;2.90;;;;;;;0.34;100.00;94520.81;5106903;27;24443;-73
2022/11/23 05:19:39;;;;;;;3.53;3.20;;;;;;;0.34;100.00;94516.53;5117358;27;24433;-73
2022/11/23 05:22:06;;;;;;;6.27;3.60;;;;;;;0.28;100.00;94511.69;5120200;27;24429;-72
2022/11/23 05:24:33;;;;;;;3.90;2.83;;;;;;;0.32;100.00;94513.22;5120718;27;24429;-73
2022/11/23 05:26:59;;;;;;;5.97;3.10;;;;;;;0.51;100.00;94510.69;5105426;27;25182;-72
2022/11/23 05:29:26;;;;;;;4.10;2.28;;;;;;;0.61;100.00;94511.94;5118160;27;24429;-72
2022/11/23 05:31:52;;;;;;;5.30;4.13;;;;;;;0.67;100.00;94510.88;5114142;27;24461;-72
2022/11/23 05:34:19;;;;;;;6.40;3.47;;;;;;;0.67;100.00;94511.69;5111640;27;24469;-72
2022/11/23 05:36:47;;;;;;;5.67;3.20;;;;;;;0.70;100.00;94506.47;5099000;27;25012;-72
2022/11/23 05:39:13;;;;;;;6.53;3.28;;;;;;;0.73;100.00;94505.47;5103365;27;24440;-72
2022/11/23 05:41:40;;;;;;;3.40;3.03;;;;;;;0.64;100.00;94509.28;5110718;27;24468;-73
2022/11/23 05:44:06;;;;;;;2.65;1.92;;;;;;;0.55;100.00;94509.66;5111559;27;24998;-73
2022/11/23 05:46:33;;;;;;;3.00;1.80;;;;;;;0.58;100.00;94516.34;5113456;27;24515;-73
2022/11/23 05:48:59;;;;;;;3.78;2.08;;;;;;;0.39;100.00;94514.59;5104067;27;25010;-72
2022/11/23 05:51:26;;;;;;;3.97;1.85;;;;;;;0.31;100.00;94515.84;5115676;27;24437;-72
2022/11/23 05:53:55;;;;;;;6.78;2.33;;;;;;;0.19;100.00;94512.91;5122000;27;24439;-72
2022/11/23 05:56:22;;;;;;;2.83;1.80;;;;;;;0.22;100.00;94512.78;5111652;27;25151;-72
2022/11/23 05:58:49;;;;;;;4.20;2.05;;;;;;;0.28;100.00;94516.78;5103124;27;24440;-72
2022/11/23 06:01:15;;;;;;;4.80;2.10;;;;;;;0.30;100.00;94514.16;5116241;27;24433;-72
2022/11/23 06:03:42;;;;;;;2.58;1.52;;;;;;;0.37;100.00;94510.47;5121345;27;24452;-72
2022/11/23 06:06:08;;;;;;;2.97;1.77;;;;;;;0.36;100.00;94516.44;5121938;27;24978;-72
2022/11/23 06:08:35;;;;;;;4.50;2.20;;;;;;;0.07;100.00;94513.41;5107779;27;24437;-72
2022/11/23 06:11:03;;;;;;;4.40;2.60;;;;;;;-0.07;100.00;94513.19;5105050;27;24438;-72
2022/11/23 06:13:29;;;;;;;4.95;1.90;;;;;;;-0.16;100.00;94514.38;5103655;27;25029;-72
2022/11/23 06:15:56;;;;;;;6.47;2.05;;;;;;;-0.21;100.00;94518.03;5109933;27;24449;-72
2022/11/23 06:18:23;;;;;;;4.05;1.60;;;;;;;-0.23;100.00;94517.25;5120727;27;24429;-73
2022/11/23 06:20:49;;;;;;;4.72;2.55;;;;;;;-0.22;100.00;94516.34;5113987;27;24453;-73
2022/11/23 06:23:16;;;;;;;4.85;1.75;;;;;;;-0.12;100.00;94518.44;5111169;27;24440;-73
2022/11/23 06:25:43;;;;;;;3.10;1.90;;;;;;;-0.07;100.00;94514.00;5115755;27;24430;-72
2022/11/23 06:28:10;;;;;;;2.58;1.88;;;;;;;0.04;100.00;94510.16;5116376;27;24433;-72
2022/11/23 06:30:37;;;;;;;3.78;1.83;;;;;;;0.16;100.00;94512.22;5114389;27;24460;-72
2022/11/23 06:33:04;;;;;;;3.20;1.87;;;;;;;0.22;100.00;94509.41;5112000;27;24436;-72
2022/11/23 06:35:30;;;;;;;2.28;1.65;;;;;;;0.17;100.00;94517.25;5108957;27;24537;-71
2022/11/23 06:37:57;;;;;;;5.22;2.20;;;;;;;-0.06;100.00;94515.66;5101264;27;24440;-72
2022/11/23 06:40:23;;;;;;;2.72;1.77;;;;;;;-0.13;100.00;94509.16;5111713;27;24445;-71
2022/11/23 06:42:52;;;;;;;3.30;1.70;;;;;;;-0.01;100.00;94505.28;5114103;27;24488;-71
2022/11/23 06:45:20;;;;;;;4.38;1.50;;;;;;;-0.02;100.00;94509.56;5115761;27;24523;-71
2022/11/23 06:47:47;;;;;;;3.50;1.80;;;;;;;0.09;100.00;94506.56;5116176;27;24440;-73
2022/11/23 06:50:14;;;;;;;3.78;2.03;;;;;;;0.02;100.00;94510.25;5120682;27;24441;-72
2022/11/23 06:52:40;;;;;;;3.22;2.08;;;;;;;0.04;100.00;94513.56;5116926;27;24433;-71
2022/11/23 06:55:08;;;;;;;3.03;1.65;;;;;;;0.04;100.00;94526.31;5116381;27;24445;-71
2022/11/23 06:57:34;;;;;;;3.70;2.00;;;;;;;0.06;100.00;94524.50;5100582;28;24888;-73
2022/11/23 07:00:01;;;;;;;3.65;2.00;;;;;;;0.07;100.00;94531.25;5102736;28;24437;-72
2022/11/23 07:02:29;;;;;;;7.68;2.53;;;;;;;0.08;100.00;94534.63;5096835;28;24441;-72
2022/11/23 07:04:55;;;;;;;5.40;2.80;;;;;;;0.03;100.00;94529.72;5109187;28;25004;-72
2022/11/23 07:07:22;;;;;;;4.47;2.40;;;;;;;0.09;100.00;94528.66;5106901;28;24434;-72
2022/11/23 07:09:48;;;;;;;8.70;3.20;;;;;;;0.08;100.00;94529.53;5103153;28;24436;-73
2022/11/23 07:12:15;;;;;;;5.60;2.95;;;;;;;-0.08;100.00;94530.16;5120939;28;25013;-72
2022/11/23 07:14:41;;;;;;;4.95;2.70;;;;;;;-0.16;100.00;94534.75;5112984;28;24454;-72
2022/11/23 07:17:08;;;;;;;5.40;3.25;;;;;;;-0.27;100.00;94535.16;5111974;28;24428;-72
2022/11/23 07:19:35;;;;;;;8.00;4.40;;;;;;;-0.32;100.00;94532.00;5112944;28;24808;-72
2022/11/23 07:22:02;;;;;;;9.10;4.28;;;;;;;-0.33;100.00;94537.97;5092611;28;24434;-70
2022/11/23 07:24:29;;;;;;;3.55;2.60;;;;;;;-0.14;100.00;94543.16;5116498;28;24498;-72
2022/11/23 07:26:55;;;;;;;5.47;2.35;;;;;;;0.03;100.00;94537.34;5117621;28;24429;-72
2022/11/23 07:29:22;;;;;;;4.13;2.83;;;;;;;0.14;100.00;94537.72;5116989;28;24440;-72
2022/11/23 07:31:48;;;;;;;4.85;3.30;;;;;;;0.21;100.00;94536.59;5098914;28;24441;-72
2022/11/23 07:34:15;;;;;;;4.88;2.83;;;;;;;0.27;100.00;94545.69;5107172;28;24441;-72
2022/11/23 07:36:43;;;;;;;4.38;3.03;;;;;;;0.43;100.00;94544.13;5114583;28;25001;-72
2022/11/23 07:39:10;;;;;;;10.32;2.92;;;;;;;0.21;100.00;94541.69;5110103;28;24438;-72
2022/11/23 07:41:36;;;;;;;12.15;3.30;;;;;;;-0.02;100.00;94540.09;5099984;27;24438;-71
2022/11/23 07:44:03;;;;;;;20.03;3.03;;;;;;;-0.13;100.00;94542.25;5108408;28;24441;-72
2022/11/23 07:46:29;;;;;;;10.18;3.10;;;;;;;-0.10;100.00;94542.13;5103795;28;24438;-71
2022/11/23 07:49:00;;;;;;;6.40;4.35;;;;;;;0.14;100.00;94539.44;5110756;28;24432;-71
2022/11/23 07:51:26;;;;;;;3.70;2.70;;;;;;;0.44;100.00;94547.50;5104634;28;24837;-71
2022/11/23 07:53:54;;;;;;;4.63;2.10;;;;;;;0.71;100.00;94541.22;5113719;28;24433;-72
2022/11/23 07:56:21;;;;;;;2.67;1.77;;;;;;;1.02;100.00;94533.94;5122027;27;24450;-72
2022/11/23 07:58:47;;;;;;;2.78;1.90;;;;;;;1.29;100.00;94534.38;5122267;27;24464;-72
2022/11/23 08:01:17;;;;;;;3.67;2.58;;;;;;;1.53;100.00;94543.44;5128875;27;24453;-72
2022/11/23 08:03:43;;;;;;;4.30;2.50;;;;;;;1.76;100.00;94542.34;5111627;27;24495;-72
2022/11/23 08:06:10;;;;;;;6.33;2.77;;;;;;;1.84;100.00;94553.00;5126436;27;25061;-70
2022/11/23 08:08:37;;;;;;;4.57;2.90;;;;;;;1.69;100.00;94544.38;5122977;27;25020;-72
2022/11/23 08:11:06;;;;;;;4.28;3.67;;;;;;;1.61;100.00;94546.47;5113252;27;24462;-73
2022/11/23 08:13:34;;;;;;;6.38;4.60;;;;;;;1.69;100.00;94543.53;5100790;28;24430;-73
2022/11/23 08:16:00;;;;;;;13.32;6.53;;;;;;;1.55;100.00;94548.47;5120726;27;24449;-73
2022/11/23 08:18:27;;;;;;;12.82;6.43;;;;;;;1.12;100.00;94551.28;5116737;27;24441;-73
2022/11/23 08:20:54;;;;;;;26.10;5.38;;;;;;;0.97;100.00;94554.53;5113238;27;25047;-73
2022/11/23 08:23:21;;;;;;;33.60;7.00;;;;;;;0.52;100.00;94544.63;5111891;27;24971;-72
2022/11/23 08:25:48;;;;;;;18.75;6.00;;;;;;;0.43;100.00;94549.22;5105409;27;24441;-72
2022/11/23 08:28:15;;;;;;;7.45;4.28;;;;;;;0.53;100.00;94547.13;5118987;27;24472;-74
2022/11/23 08:30:42;;;;;;;6.53;4.28;;;;;;;0.82;100.00;94550.94;5113028;27;24975;-74
2022/11/23 08:33:09;;;;;;;6.05;3.60;;;;;;;0.91;100.00;94552.25;5114969;27;24440;-74
2022/11/23 08:35:37;;;;;;;3.03;2.53;;;;;;;1.10;100.00;94540.31;5115212;27;24449;-75
2022/11/23 08:38:04;;;;;;;3.85;2.25;;;;;;;1.25;100.00;94540.53;5108084;27;24438;-75
2022/11/23 08:40:31;;;;;;;3.90;1.88;;;;;;;1.43;100.00;94540.50;5109838;28;24441;-73
2022/11/23 08:42:58;;;;;;;3.97;1.85;;;;;;;1.59;100.00;94532.13;5109966;27;24495;-73
2022/11/23 08:45:27;;;;;;;3.72;2.25;;;;;;;2.01;100.00;94533.50;5121145;27;24433;-72
2022/11/23 08:47:54;;;;;;;4.72;2.60;;;;;;;2.25;100.00;94532.28;5110933;27;24438;-72
2022/11/23 08:50:21;;;;;;;4.87;2.77;;;;;;;2.35;100.00;94543.69;5111092;27;24502;-73
2022/11/23 08:52:47;;;;;;;4.05;2.28;;;;;;;2.54;100.00;94541.03;5112205;27;24439;-72
2022/11/23 08:55:14;;;;;;;4.45;2.60;;;;;;;2.76;100.00;94543.31;5124506;27;24453;-72
2022/11/23 08:57:40;;;;;;;5.60;3.40;;;;;;;2.76;100.00;94547.59;5109538;27;24799;-73
2022/11/23 09:00:08;;;;;;;7.35;4.20;;;;;;;2.91;100.00;94542.50;5113572;27;24433;-75
2022/11/23 09:02:36;;;;;;;8.30;4.13;;;;;;;3.09;100.00;94539.91;5100356;27;24927;-74
2022/11/23 09:05:04;;;;;;;5.20;3.67;;;;;;;3.53;100.00;94529.81;5123766;27;24432;-72
2022/11/23 09:07:32;;;;;;;9.05;4.35;;;;;;;3.55;100.00;94532.28;5106792;27;24843;-72
2022/11/23 09:09:58;;;;;;;6.95;4.00;;;;;;;3.49;100.00;94536.00;5101781;27;24449;-72
2022/11/23 09:12:25;;;;;;;8.93;4.30;;;;;;;3.47;100.00;94542.94;5106202;27;24441;-72
2022/11/23 09:14:53;;;;;;;9.27;3.95;;;;;;;3.47;100.00;94542.94;5121342;27;24806;-72
2022/11/23 09:17:19;;;;;;;6.82;3.70;;;;;;;3.40;100.00;94544.19;5115982;27;24441;-72
2022/11/23 09:19:50;;;;;;;7.63;4.85;;;;;;;3.40;100.00;94547.56;5113922;27;24449;-72
2022/11/23 09:22:16;;;;;;;11.40;6.38;;;;;;;3.38;100.00;94541.72;5116822;27;25003;-72
2022/11/23 09:24:43;;;;;;;22.75;10.60;;;;;;;3.38;100.00;94544.28;5116524;27;24440;-72
2022/11/23 09:27:09;;;;;;;12.93;6.15;;;;;;;3.53;100.00;94541.78;5116424;27;24439;-72
2022/11/23 09:29:36;;;;;;;8.90;4.30;;;;;;;3.58;100.00;94538.06;5114105;27;24445;-72
2022/11/23 09:32:03;;;;;;;8.88;2.60;;;;;;;3.76;100.00;94545.63;5115113;27;24442;-72
2022/11/23 09:34:29;;;;;;;5.53;2.77;;;;;;;3.83;100.00;94550.31;5106852;27;24708;-72
2022/11/23 09:36:57;;;;;;;5.32;2.45;;;;;;;4.09;100.00;94553.16;5124466;27;24449;-72
2022/11/23 09:39:24;;;;;;;7.25;2.75;;;;;;;4.03;100.00;94556.88;5119681;27;24493;-72
2022/11/23 09:42:12;;;;;;;8.75;2.35;;;;;;;4.06;100.00;94559.28;5115726;27;24448;-72
2022/11/23 09:45:03;;;;;;;7.03;2.50;;;;;;;4.08;100.00;94557.47;5103372;27;25001;-72
2022/11/23 09:47:46;;;;;;;6.50;2.47;;;;;;;4.11;100.00;94554.69;5114465;27;25008;-72
2022/11/23 09:50:20;;;;;;;5.53;2.60;;;;;;;4.40;100.00;94549.66;5116284;27;24444;-72
2022/11/23 09:52:50;;;;;;;5.15;2.50;;;;;;;4.48;100.00;94552.59;5121031;27;24433;-73
2022/11/23 09:55:36;;;;;;;7.53;2.35;;;;;;;4.76;100.00;94545.84;5112607;27;24464;-72
2022/11/23 09:58:06;;;;;;;5.22;2.25;;;;;;;4.84;100.00;94543.66;5106566;27;24441;-72
2022/11/23 10:00:37;;;;;;;2.75;1.90;;;;;;;4.83;100.00;94547.13;5113884;27;24885;-73
2022/11/23 10:03:04;;;;;;;5.80;2.25;;;;;;;5.01;100.00;94543.47;5113749;27;24438;-73
2022/11/23 10:05:38;;;;;;;6.30;2.20;;;;;;;5.07;100.00;94540.50;5107988;27;24499;-73
2022/11/23 10:08:14;;;;;;;5.77;2.47;;;;;;;5.20;100.00;94540.59;5117768;27;24517;-73
2022/11/23 10:10:44;;;;;;;6.38;2.58;;;;;;;5.28;100.00;94540.13;5104324;28;24441;-73
2022/11/23 10:13:26;;;;;;;7.85;2.47;;;;;;;5.09;100.00;94541.25;5119694;27;24433;-73
2022/11/23 10:16:19;;;;;;;9.25;3.25;;;;;;;5.49;100.00;94541.38;5116621;27;24453;-74
2022/11/23 10:18:52;;;;;;;3.97;1.90;;;;;;;5.88;100.00;94539.75;5112913;27;25029;-73
2022/11/23 10:21:28;;;;;;;5.95;2.53;;;;;;;5.88;100.00;94539.75;5111436;27;24446;-72
2022/11/23 10:24:05;;;;;;;5.07;2.30;;;;;;;6.12;100.00;94534.81;5117955;27;24491;-73
2022/11/23 10:26:36;;;;;;;8.98;2.70;;;;;;;6.21;100.00;94539.34;5101943;27;24435;-72
2022/11/23 10:29:11;;;;;;;4.90;2.30;;;;;;;6.44;100.00;94529.31;5115808;27;24541;-73
2022/11/23 10:31:38;;;;;;;7.63;2.35;;;;;;;6.63;100.00;94529.72;5100934;27;24566;-73
2022/11/23 10:34:10;;;;;;;4.90;2.08;;;;;;;6.58;100.00;94526.63;5114731;27;24476;-73
2022/11/23 10:36:37;;;;;;;15.02;2.58;;;;;;;6.60;100.00;94518.81;5124469;27;24452;-71
2022/11/23 10:39:16;;;;;;;4.70;2.17;;;;;;;6.30;100.00;94522.50;5104918;27;24434;-69
2022/11/23 10:41:44;;;;;;;5.18;2.30;;;;;;;6.45;100.00;94526.66;5108826;27;24982;-69
2022/11/23 10:44:25;;;;;;;7.50;2.00;;;;;;;6.11;100.00;94532.34;5120989;27;24429;-70
2022/11/23 10:46:52;;;;;;;4.47;1.97;;;;;;;6.11;100.00;94529.78;5117062;27;24433;-70
2022/11/23 10:49:21;;;;;;;7.57;2.45;;;;;;;6.30;100.00;94523.34;5117962;27;24434;-70
2022/11/23 10:51:51;;;;;;;8.40;2.53;;;;;;;5.92;100.00;94530.09;5113788;27;24437;-70
2022/11/23 10:54:23;;;;;;;3.47;1.90;;;;;;;5.82;100.00;94522.16;5114329;27;24445;-71
2022/11/23 10:56:52;;;;;;;7.15;2.15;;;;;;;5.63;100.00;94524.25;5117638;27;24453;-71
2022/11/23 10:59:35;;;;;;;6.60;2.33;;;;;;;5.90;100.00;94521.69;5118205;27;25001;-71
2022/11/23 11:02:13;;;;;;;4.82;2.38;;;;;;;5.99;100.00;94514.22;5102804;27;24499;-71
2022/11/23 11:04:40;;;;;;;4.38;2.35;;;;;;;6.25;100.00;94514.28;5105900;28;24425;-71
2022/11/23 11:07:21;;;;;;;4.47;2.35;;;;;;;6.33;100.00;94512.00;5117279;28;24430;-71
2022/11/23 11:09:55;;;;;;;5.78;2.42;;;;;;;6.56;100.00;94518.19;5110191;28;24436;-70
2022/11/23 11:12:21;;;;;;;5.10;2.63;;;;;;;6.06;100.00;94506.94;5120218;28;24431;-70
2022/11/23 11:15:04;;;;;;;6.93;2.43;;;;;;;5.70;100.00;94503.22;5122801;27;24497;-70
2022/11/23 11:17:33;;;;;;;5.78;2.50;;;;;;;5.54;100.00;94505.94;5105753;28;24441;-70
2022/11/23 11:20:00;;;;;;;7.05;2.30;;;;;;;5.66;100.00;94496.63;5120032;27;24433;-70
2022/11/23 11:22:33;;;;;;;4.22;2.08;;;;;;;5.90;100.00;94498.56;5116782;28;24440;-72
2022/11/23 11:25:01;;;;;;;6.90;2.05;;;;;;;6.01;100.00;94494.41;5120428;27;24428;-71
2022/11/23 11:27:31;;;;;;;3.83;1.98;;;;;;;6.17;100.00;94496.78;5106249;28;24433;-72
2022/11/23 11:30:04;;;;;;;4.57;2.13;;;;;;;6.44;100.00;94483.81;5103537;28;25046;-72
2022/11/23 11:32:41;;;;;;;4.35;2.20;;;;;;;6.05;100.00;94490.69;5107825;27;24468;-72
2022/11/23 11:35:15;;;;;;;7.78;2.00;;;;;;;5.94;100.00;94485.44;5117374;27;24447;-72
2022/11/23 11:37:44;;;;;;;5.15;2.25;;;;;;;5.91;100.00;94477.91;5117972;27;24429;-72